createdAt,value
2018-05-16T00:00:34.994Z,18.76
2018-05-16T00:05:36.342Z,18.65
2018-05-16T00:10:37.655Z,18.51
2018-05-16T00:15:38.962Z,18.39
2018-05-16T00:20:40.278Z,18.36
2018-05-16T00:25:42.323Z,18.26
2018-05-16T00:30:43.635Z,18.25
2018-05-16T00:35:44.945Z,18.26
2018-05-16T00:40:46.266Z,18.24
2018-05-16T00:45:47.569Z,18.26
2018-05-16T00:51:07.459Z,18.14
2018-05-16T00:56:08.775Z,17.93
2018-05-16T01:01:10.097Z,17.85
2018-05-16T01:06:11.453Z,17.96
2018-05-16T01:11:12.735Z,17.97
2018-05-16T01:16:14.814Z,17.88
2018-05-16T01:21:16.142Z,17.83
2018-05-16T01:26:17.466Z,17.77
2018-05-16T01:31:18.773Z,17.75
2018-05-16T01:36:20.083Z,17.58
2018-05-16T01:41:22.127Z,17.52
2018-05-16T01:46:23.422Z,17.38
2018-05-16T01:51:24.757Z,17.33
2018-05-16T01:56:26.066Z,17.03
2018-05-16T02:01:28.099Z,17.03
2018-05-16T02:06:29.422Z,17.03
2018-05-16T02:11:30.725Z,16.83
2018-05-16T02:16:32.059Z,16.81
2018-05-16T02:21:33.371Z,16.80
2018-05-16T02:26:34.678Z,16.86
2018-05-16T02:31:35.982Z,16.82
2018-05-16T02:36:37.307Z,16.77
2018-05-16T02:41:39.352Z,16.91
2018-05-16T02:46:40.647Z,16.96
2018-05-16T02:51:41.958Z,16.96
2018-05-16T02:56:43.247Z,16.94
2018-05-16T03:01:44.557Z,16.88
2018-05-16T03:06:46.627Z,16.82
2018-05-16T03:11:47.938Z,16.60
2018-05-16T03:16:49.973Z,16.60
2018-05-16T03:21:51.278Z,16.63
2018-05-16T03:26:52.589Z,16.52
2018-05-16T03:31:53.882Z,16.51
2018-05-16T03:36:55.191Z,16.39
2018-05-16T03:41:56.498Z,16.44
2018-05-16T03:46:58.542Z,16.51
2018-05-16T03:51:59.900Z,16.39
2018-05-16T03:57:01.567Z,16.34
2018-05-16T04:02:21.692Z,16.43
2018-05-16T04:07:23.206Z,16.33
2018-05-16T04:12:24.641Z,16.28
2018-05-16T04:17:27.037Z,16.43
2018-05-16T04:22:28.380Z,16.49
2018-05-16T04:27:29.665Z,16.32
2018-05-16T04:32:31.826Z,16.35
2018-05-16T04:37:33.186Z,16.59
2018-05-16T04:42:34.545Z,16.62
2018-05-16T04:47:35.867Z,16.68
2018-05-16T04:52:37.169Z,16.84
2018-05-16T04:57:39.217Z,17.08
2018-05-16T05:02:40.540Z,17.38
2018-05-16T05:07:41.866Z,17.80
2018-05-16T05:12:43.168Z,18.30
2018-05-16T05:17:44.466Z,18.69
2018-05-16T05:22:45.771Z,18.90
2018-05-16T05:27:47.089Z,18.96
2018-05-16T05:32:48.415Z,18.90
2018-05-16T05:37:49.710Z,18.74
2018-05-16T05:42:51.030Z,18.65
2018-05-16T05:47:52.329Z,18.87
2018-05-16T05:52:53.631Z,18.95
2018-05-16T05:57:54.937Z,19.02
2018-05-16T06:02:57.004Z,18.79
2018-05-16T06:07:58.323Z,18.78
2018-05-16T06:12:59.630Z,18.64
2018-05-16T06:18:01.682Z,18.52
2018-05-16T06:23:02.978Z,18.23
2018-05-16T06:28:04.310Z,18.14
2018-05-16T06:33:06.358Z,18.62
2018-05-16T06:38:07.680Z,18.83
2018-05-16T06:43:08.986Z,19.06
2018-05-16T06:48:10.313Z,19.09
2018-05-16T06:53:11.622Z,19.19
2018-05-16T06:58:12.941Z,19.25
2018-05-16T07:03:14.258Z,19.37
2018-05-16T07:08:16.294Z,19.37
2018-05-16T07:13:17.605Z,19.53
2018-05-16T07:18:18.906Z,19.78
2018-05-16T07:23:20.196Z,20.19
2018-05-16T07:28:21.489Z,20.61
2018-05-16T07:33:22.785Z,20.67
2018-05-16T07:38:24.089Z,20.68
2018-05-16T07:43:26.150Z,20.76
2018-05-16T07:48:27.461Z,20.77
2018-05-16T07:53:28.788Z,21.25
2018-05-16T07:58:30.111Z,21.57
2018-05-16T08:03:31.441Z,21.73
2018-05-16T08:08:33.492Z,21.76
2018-05-16T08:13:34.793Z,21.26
2018-05-16T08:18:36.090Z,21.19
2018-05-16T08:23:37.402Z,21.06
2018-05-16T08:28:38.714Z,21.75
2018-05-16T08:33:40.771Z,22.18
2018-05-16T08:38:42.079Z,22.38
2018-05-16T08:43:43.398Z,22.20
2018-05-16T08:48:45.469Z,22.49
2018-05-16T08:53:46.782Z,22.83
2018-05-16T08:58:48.831Z,23.19
2018-05-16T09:03:50.146Z,23.13
2018-05-16T09:08:51.442Z,23.55
2018-05-16T09:13:52.773Z,23.70
2018-05-16T09:18:54.069Z,23.78
2018-05-16T09:23:55.385Z,23.57
2018-05-16T09:28:56.693Z,23.18
2018-05-16T09:33:57.994Z,22.64
2018-05-16T09:38:59.289Z,21.88
2018-05-16T09:44:00.581Z,21.95
2018-05-16T09:49:01.887Z,22.45
2018-05-16T09:54:03.953Z,22.85
2018-05-16T09:59:05.286Z,23.28
2018-05-16T10:04:07.377Z,22.93
2018-05-16T10:09:09.413Z,22.77
2018-05-16T10:14:10.734Z,22.92
2018-05-16T10:19:12.052Z,23.05
2018-05-16T10:24:13.355Z,23.18
2018-05-16T10:29:15.399Z,22.99
2018-05-16T10:34:16.714Z,22.98
2018-05-16T10:39:18.009Z,23.47
2018-05-16T10:44:19.316Z,23.71
2018-05-16T10:49:21.348Z,23.84
2018-05-16T10:54:22.641Z,23.94
2018-05-16T10:59:23.945Z,24.47
2018-05-16T11:04:25.296Z,24.74
2018-05-16T11:09:27.325Z,24.67
2018-05-16T11:14:28.614Z,24.58
2018-05-16T11:19:29.913Z,25.00
2018-05-16T11:24:31.221Z,25.50
2018-05-16T11:29:32.526Z,25.68
2018-05-16T11:34:33.840Z,25.20
2018-05-16T11:39:35.145Z,24.78
2018-05-16T11:44:37.212Z,24.49
2018-05-16T11:49:38.518Z,24.34
2018-05-16T11:54:39.843Z,24.68
2018-05-16T11:59:41.147Z,25.19
2018-05-16T12:04:42.545Z,25.59
2018-05-16T12:09:50.845Z,25.86
2018-05-16T12:14:52.919Z,26.04
2018-05-16T12:19:54.228Z,26.20
2018-05-16T12:24:55.533Z,26.18
2018-05-16T12:29:57.582Z,26.34
2018-05-16T12:34:58.890Z,26.61
2018-05-16T12:40:00.221Z,26.78
2018-05-16T12:45:02.315Z,27.37
2018-05-16T12:50:03.651Z,27.72
2018-05-16T12:55:04.958Z,27.59
2018-05-16T13:00:06.304Z,27.24
2018-05-16T13:05:08.373Z,27.26
2018-05-16T13:10:09.681Z,27.58
2018-05-16T13:15:10.994Z,27.68
2018-05-16T13:20:12.285Z,27.67
2018-05-16T13:25:14.337Z,27.51
2018-05-16T13:30:15.650Z,27.23
2018-05-16T13:35:16.979Z,27.26
2018-05-16T13:40:18.291Z,27.34
2018-05-16T13:45:19.646Z,27.25
2018-05-16T13:50:21.697Z,27.42
2018-05-16T13:55:23.023Z,27.59
2018-05-16T14:00:24.319Z,27.71
2018-05-16T14:05:26.399Z,27.65
2018-05-16T14:10:27.711Z,27.95
2018-05-16T14:15:29.777Z,28.66
2018-05-16T14:20:31.217Z,29.24
2018-05-16T14:25:33.304Z,29.36
2018-05-16T14:30:34.626Z,29.29
2018-05-16T14:35:35.950Z,29.42
2018-05-16T14:40:37.278Z,29.55
2018-05-16T14:45:39.319Z,30.00
2018-05-16T14:50:40.641Z,30.00
2018-05-16T14:55:42.088Z,29.14
2018-05-16T15:00:44.965Z,28.00
2018-05-16T15:05:46.327Z,27.20
2018-05-16T15:10:47.663Z,25.56
2018-05-16T15:15:49.090Z,24.17
2018-05-16T15:20:50.407Z,23.61
2018-05-16T15:25:51.718Z,23.31
2018-05-16T15:30:53.034Z,22.87
2018-05-16T15:35:54.377Z,22.38
2018-05-16T15:40:55.685Z,22.36
2018-05-16T15:45:57.019Z,21.80
2018-05-16T15:50:59.080Z,21.40
2018-05-16T15:56:01.302Z,21.02
2018-05-16T16:01:02.655Z,20.49
2018-05-16T16:06:04.005Z,20.37
2018-05-16T16:11:07.357Z,20.16
2018-05-16T16:16:08.673Z,19.76
2018-05-16T16:21:10.017Z,19.37
2018-05-16T16:26:11.340Z,19.14
2018-05-16T16:31:12.754Z,18.83
2018-05-16T16:36:13.997Z,19.18
2018-05-16T16:41:17.026Z,19.50
2018-05-16T16:46:18.404Z,19.66
2018-05-16T16:51:20.469Z,20.35
2018-05-16T16:56:21.851Z,20.80
2018-05-16T17:01:23.865Z,20.84
2018-05-16T17:06:25.224Z,20.39
2018-05-16T17:11:26.734Z,20.13
2018-05-16T17:16:28.146Z,19.90
2018-05-16T17:21:29.542Z,19.06
2018-05-16T17:26:31.087Z,18.89
2018-05-16T17:31:32.709Z,18.84
2018-05-16T17:36:34.419Z,18.35
2018-05-16T17:41:37.442Z,18.31
2018-05-16T17:46:46.949Z,18.69
2018-05-16T17:51:48.332Z,18.73
2018-05-16T17:56:50.570Z,18.68
2018-05-16T18:01:53.504Z,18.55
2018-05-16T18:06:55.776Z,18.48
2018-05-16T18:11:58.376Z,18.59
2018-05-16T18:17:18.862Z,18.57
2018-05-16T18:22:20.520Z,18.27
2018-05-16T18:27:22.674Z,17.96
2018-05-16T18:32:26.036Z,17.62
2018-05-16T18:37:27.699Z,17.62
2018-05-16T18:42:30.824Z,17.61
2018-05-16T18:47:32.985Z,17.48
2018-05-16T18:52:34.445Z,17.22
2018-05-16T18:57:37.127Z,17.11
2018-05-16T19:02:38.450Z,16.99
2018-05-16T19:07:40.815Z,16.98
2018-05-16T19:12:42.169Z,16.91
2018-05-16T19:17:44.219Z,16.81
2018-05-16T19:22:45.658Z,16.61
2018-05-16T19:27:47.822Z,16.62
2018-05-16T19:32:50.021Z,16.55
2018-05-16T19:37:51.399Z,16.39
2018-05-16T19:42:52.727Z,16.35
2018-05-16T19:47:54.526Z,16.29
2018-05-16T19:52:55.842Z,16.28
2018-05-16T19:57:57.913Z,16.25
2018-05-16T20:02:59.282Z,16.30
2018-05-16T20:08:00.652Z,16.34
2018-05-16T20:13:01.989Z,16.26
2018-05-16T20:18:03.349Z,16.38
2018-05-16T20:23:04.686Z,16.33
2018-05-16T20:28:07.105Z,16.24
2018-05-16T20:33:10.343Z,16.09
2018-05-16T20:38:11.898Z,16.03
2018-05-16T20:43:13.207Z,16.06
2018-05-16T20:48:20.835Z,15.99
2018-05-16T20:53:22.213Z,15.91
2018-05-16T20:58:23.555Z,15.67
2018-05-16T21:03:25.618Z,15.75
2018-05-16T21:08:26.970Z,15.67
2018-05-16T21:13:28.310Z,15.51
2018-05-16T21:18:29.614Z,15.43
2018-05-16T21:23:31.681Z,15.45
2018-05-16T21:28:33.081Z,15.31
2018-05-16T21:33:35.092Z,15.36
2018-05-16T21:38:36.404Z,15.28
2018-05-16T21:43:37.733Z,15.31
2018-05-16T21:48:39.056Z,15.37
2018-05-16T21:53:40.375Z,15.36
2018-05-16T21:58:41.699Z,15.24
2018-05-16T22:03:43.035Z,15.24
2018-05-16T22:08:44.373Z,15.21
2018-05-16T22:13:45.695Z,15.32
2018-05-16T22:18:47.005Z,15.20
2018-05-16T22:23:48.306Z,15.07
2018-05-16T22:28:49.644Z,14.97
2018-05-16T22:33:57.139Z,14.95
2018-05-16T22:39:05.329Z,14.85
2018-05-16T22:44:20.464Z,14.79
2018-05-16T22:49:21.779Z,14.62
2018-05-16T22:54:23.094Z,14.49
2018-05-16T22:59:25.159Z,14.56
2018-05-16T23:04:26.481Z,14.43
2018-05-16T23:09:28.521Z,14.48
2018-05-16T23:14:29.864Z,14.35
2018-05-16T23:19:31.205Z,14.19
2018-05-16T23:24:32.519Z,14.28
2018-05-16T23:29:33.851Z,14.23
2018-05-16T23:34:36.047Z,14.30
2018-05-16T23:39:37.826Z,14.32
2018-05-16T23:44:39.373Z,14.42
2018-05-16T23:49:40.687Z,14.26
2018-05-16T23:54:42.347Z,14.25
2018-05-16T23:59:44.036Z,14.20
